Time;durP1;ratioP1;P1;durP2;ratioP2;P2;SDS_P1;SDS_P2;PMS_P1;PMS_P2;Temp;Humidity;BMP_temperature;BMP_pressure;BME280_temperature;BME280_humidity;BME280_pressure;Samples;Min_cycle;Max_cycle;Signal;HPM_P1;HPM_P2
2021/04/22 00:02:22;;;;;;;15.30;13.70;;;9.00;99.90;;;;;;5013643;28;20532;-69
2021/04/22 00:04:48;;;;;;;17.60;14.10;;;9.10;99.90;;;;;;5013028;28;20536;-69
2021/04/22 00:07:16;;;;;;;13.83;12.50;;;9.10;99.90;;;;;;5013174;28;20482;-68
2021/04/22 00:09:42;;;;;;;16.07;11.87;;;9.10;99.90;;;;;;5013131;28;20887;-70
2021/04/22 00:12:10;;;;;;;13.97;12.57;;;9.20;99.90;;;;;;5012620;28;20541;-69
2021/04/22 00:14:36;;;;;;;14.57;13.03;;;9.30;99.90;;;;;;5012576;28;20456;-70
2021/04/22 00:17:07;;;;;;;13.90;12.40;;;9.50;99.90;;;;;;5013181;28;20543;-70
2021/04/22 00:19:34;;;;;;;14.20;12.10;;;9.60;99.90;;;;;;5013073;28;20468;-68
2021/04/22 00:22:00;;;;;;;15.33;12.27;;;9.60;99.90;;;;;;5012669;28;20873;-70
2021/04/22 00:24:27;;;;;;;14.53;13.07;;;9.60;99.90;;;;;;5012305;28;20909;-69
2021/04/22 00:26:53;;;;;;;16.70;13.90;;;9.70;99.90;;;;;;5012571;28;20555;-70
2021/04/22 00:29:19;;;;;;;16.17;14.47;;;9.70;99.90;;;;;;5012741;28;20883;-69
2021/04/22 00:31:46;;;;;;;13.60;12.20;;;9.60;99.90;;;;;;5012874;28;21056;-68
2021/04/22 00:34:13;;;;;;;17.80;12.73;;;9.50;99.90;;;;;;5012606;28;20955;-70
2021/04/22 00:36:39;;;;;;;15.30;13.20;;;9.50;99.90;;;;;;5012909;28;20453;-70
2021/04/22 00:39:07;;;;;;;18.37;13.27;;;9.50;99.90;;;;;;5012459;28;20572;-69
2021/04/22 00:41:33;;;;;;;15.40;13.23;;;9.50;99.90;;;;;;5012044;28;20926;-71
2021/04/22 00:43:59;;;;;;;16.83;13.47;;;9.50;99.90;;;;;;5012446;28;20501;-71
2021/04/22 00:46:26;;;;;;;16.23;14.53;;;9.40;99.90;;;;;;5012727;28;20456;-69
2021/04/22 00:48:52;;;;;;;16.07;14.47;;;9.30;99.90;;;;;;5013704;28;20573;-69
2021/04/22 00:51:20;;;;;;;17.20;15.40;;;9.20;99.90;;;;;;5012860;28;20441;-70
2021/04/22 00:53:47;;;;;;;16.97;15.17;;;9.20;99.90;;;;;;5011997;28;20549;-69
2021/04/22 00:56:13;;;;;;;18.77;16.43;;;9.20;99.90;;;;;;5012017;28;20458;-70
2021/04/22 00:58:39;;;;;;;21.03;15.07;;;9.20;99.90;;;;;;5012298;28;20442;-71
2021/04/22 01:01:06;;;;;;;17.57;15.70;;;9.20;99.90;;;;;;5012191;28;20973;-70
2021/04/22 01:03:32;;;;;;;18.20;16.20;;;9.10;99.90;;;;;;5012139;28;20476;-70
2021/04/22 01:06:00;;;;;;;19.13;17.03;;;9.10;99.90;;;;;;5012467;28;20446;-68
2021/04/22 01:08:27;;;;;;;19.17;17.10;;;9.10;99.90;;;;;;5013539;28;20481;-71
2021/04/22 01:10:54;;;;;;;20.37;18.00;;;9.10;99.90;;;;;;5012093;28;20454;-71
2021/04/22 01:13:21;;;;;;;22.10;16.43;;;9.10;99.90;;;;;;5011764;28;20747;-71
2021/04/22 01:15:47;;;;;;;19.00;17.00;;;9.10;99.90;;;;;;5011776;28;21039;-70
2021/04/22 01:18:14;;;;;;;21.00;15.70;;;9.20;99.90;;;;;;5011984;28;20441;-71
2021/04/22 01:20:44;;;;;;;20.23;17.87;;;9.20;99.90;;;;;;5012177;28;20519;-71
2021/04/22 01:23:12;;;;;;;18.63;16.67;;;9.20;99.90;;;;;;5011268;28;20473;-71
2021/04/22 01:25:40;;;;;;;17.63;15.70;;;9.10;99.90;;;;;;5011774;28;20544;-70
2021/04/22 01:28:09;;;;;;;20.80;17.97;;;9.10;99.90;;;;;;5011738;28;20892;-70
2021/04/22 01:30:38;;;;;;;17.70;15.73;;;9.10;99.90;;;;;;5011972;28;20441;-71
2021/04/22 01:33:06;;;;;;;19.57;16.47;;;9.00;99.90;;;;;;5011427;28;20494;-70
2021/04/22 01:35:35;;;;;;;18.63;15.50;;;9.00;99.90;;;;;;5011112;28;20837;-71
2021/04/22 01:38:01;;;;;;;16.60;14.90;;;9.00;99.90;;;;;;5011730;28;20480;-71
2021/04/22 01:40:29;;;;;;;17.67;15.87;;;8.90;99.90;;;;;;5011522;28;20448;-70
2021/04/22 01:42:56;;;;;;;20.33;17.33;;;8.90;99.90;;;;;;5011221;28;20472;-70
2021/04/22 01:45:23;;;;;;;19.40;15.77;;;8.80;99.90;;;;;;5011226;28;20937;-70
2021/04/22 01:47:49;;;;;;;19.17;16.60;;;8.70;99.90;;;;;;5011676;28;20473;-69
2021/04/22 01:50:19;;;;;;;20.10;16.57;;;8.60;99.90;;;;;;5011478;28;20817;-68
2021/04/22 01:52:46;;;;;;;19.27;16.07;;;8.60;99.90;;;;;;5010811;28;20502;-69
2021/04/22 01:55:16;;;;;;;19.90;17.13;;;8.60;99.90;;;;;;5011103;28;20536;-68
2021/04/22 01:57:43;;;;;;;18.40;16.40;;;8.60;99.90;;;;;;5011355;28;20442;-68
2021/04/22 02:00:13;;;;;;;20.03;17.53;;;8.90;99.90;;;;;;5011253;28;20446;-70
2021/04/22 02:02:40;;;;;;;25.40;18.93;;;9.00;99.90;;;;;;5010909;28;20468;-71
2021/04/22 02:05:08;;;;;;;19.30;17.37;;;9.10;99.90;;;;;;5011134;28;20492;-70
2021/04/22 02:07:34;;;;;;;20.13;18.03;;;9.00;99.90;;;;;;5010806;28;20485;-71
2021/04/22 02:10:00;;;;;;;22.17;18.73;;;8.90;99.90;;;;;;5010960;28;20473;-68
2021/04/22 02:12:27;;;;;;;20.63;18.60;;;8.80;99.90;;;;;;5010484;28;20513;-69
2021/04/22 02:14:54;;;;;;;19.87;17.77;;;8.70;99.90;;;;;;5010891;28;20932;-69
2021/04/22 02:17:20;;;;;;;18.70;16.70;;;8.60;99.90;;;;;;5010681;28;20533;-71
2021/04/22 02:19:47;;;;;;;21.37;17.03;;;8.50;99.90;;;;;;5011174;28;20457;-68
2021/04/22 02:22:13;;;;;;;18.87;17.10;;;8.40;99.90;;;;;;5010797;28;20461;-69
2021/04/22 02:24:39;;;;;;;30.33;19.40;;;8.30;99.90;;;;;;5010728;28;21001;-70
2021/04/22 02:27:07;;;;;;;20.23;16.90;;;8.30;99.90;;;;;;5010813;28;20510;-70
2021/04/22 02:29:33;;;;;;;19.47;17.43;;;8.20;99.90;;;;;;5010823;28;20823;-68
2021/04/22 02:32:01;;;;;;;20.47;18.30;;;8.30;99.90;;;;;;5010687;28;20533;-70
2021/04/22 02:34:27;;;;;;;21.37;17.07;;;8.30;99.90;;;;;;5010478;28;20564;-68
2021/04/22 02:36:53;;;;;;;19.57;17.20;;;8.30;99.90;;;;;;5010796;28;20928;-70
2021/04/22 02:39:20;;;;;;;21.00;17.40;;;8.30;99.90;;;;;;5010589;28;20520;-70
2021/04/22 02:41:46;;;;;;;20.77;18.57;;;8.30;99.90;;;;;;5010689;28;20454;-70
2021/04/22 02:44:13;;;;;;;22.43;18.00;;;8.30;99.90;;;;;;5010438;28;20557;-68
2021/04/22 02:46:39;;;;;;;19.00;17.00;;;8.40;99.90;;;;;;5010815;28;20933;-70
2021/04/22 02:49:06;;;;;;;19.83;17.80;;;8.40;99.90;;;;;;5010803;28;20482;-70
2021/04/22 02:51:32;;;;;;;19.77;17.67;;;8.50;99.90;;;;;;5010817;28;20537;-70
2021/04/22 02:53:59;;;;;;;20.80;18.70;;;8.50;99.90;;;;;;5010411;28;20465;-70
2021/04/22 02:56:25;;;;;;;19.30;17.20;;;8.50;99.90;;;;;;5010614;28;20540;-70
2021/04/22 02:58:51;;;;;;;19.87;17.63;;;8.60;99.90;;;;;;5010526;28;20557;-71
2021/04/22 03:01:18;;;;;;;20.67;17.73;;;8.70;99.90;;;;;;5010201;28;20537;-68
2021/04/22 03:03:44;;;;;;;19.53;17.50;;;8.80;99.90;;;;;;5010000;28;20477;-68
2021/04/22 03:06:11;;;;;;;18.97;16.97;;;8.80;99.90;;;;;;5013776;28;20534;-68
2021/04/22 03:08:38;;;;;;;22.20;17.43;;;8.90;99.90;;;;;;5014113;28;20485;-68
2021/04/22 03:11:04;;;;;;;18.60;16.70;;;8.90;99.90;;;;;;5014178;28;20481;-68
2021/04/22 03:13:30;;;;;;;19.20;17.07;;;9.00;99.90;;;;;;5013531;28;20461;-68
2021/04/22 03:15:57;;;;;;;20.40;18.27;;;9.10;99.90;;;;;;5014012;28;20477;-68
2021/04/22 03:18:23;;;;;;;20.80;18.70;;;9.20;99.90;;;;;;5013884;28;20446;-68
2021/04/22 03:20:50;;;;;;;24.17;18.60;;;9.10;99.90;;;;;;5013845;28;20445;-68
2021/04/22 03:23:17;;;;;;;20.33;18.13;;;9.20;99.90;;;;;;5013000;28;20478;-68
2021/04/22 03:25:44;;;;;;;21.80;18.40;;;9.30;99.90;;;;;;5013281;28;20449;-69
2021/04/22 03:28:10;;;;;;;21.27;19.00;;;9.40;99.90;;;;;;5013508;28;20560;-68
2021/04/22 03:30:37;;;;;;;21.63;18.47;;;9.40;99.90;;;;;;5013859;28;20944;-68
2021/04/22 03:33:04;;;;;;;22.87;19.73;;;9.40;99.90;;;;;;5014002;28;20657;-70
2021/04/22 03:35:30;;;;;;;22.50;19.17;;;9.50;99.90;;;;;;5013593;28;20449;-69
2021/04/22 03:37:57;;;;;;;20.93;18.73;;;9.40;99.90;;;;;;5013869;28;21248;-69
2021/04/22 03:40:25;;;;;;;21.83;19.40;;;9.40;99.90;;;;;;5013457;28;20521;-68
2021/04/22 03:42:52;;;;;;;22.50;18.03;;;9.30;99.90;;;;;;5013095;28;20564;-68
2021/04/22 03:45:20;;;;;;;23.20;18.97;;;9.30;99.90;;;;;;5013963;28;20484;-68
2021/04/22 03:47:46;;;;;;;20.93;18.73;;;9.20;99.90;;;;;;5013335;28;20513;-68
2021/04/22 03:50:15;;;;;;;21.93;19.73;;;9.10;99.90;;;;;;5013529;28;20478;-68
2021/04/22 03:52:43;;;;;;;23.40;19.80;;;9.10;99.90;;;;;;5012627;28;20470;-69
2021/04/22 03:55:12;;;;;;;24.27;18.83;;;9.00;99.90;;;;;;5012823;28;20456;-68
2021/04/22 03:57:40;;;;;;;28.20;20.20;;;9.00;99.90;;;;;;5013194;28;20871;-68
2021/04/22 04:00:08;;;;;;;23.80;19.70;;;8.90;99.90;;;;;;5013351;28;20812;-68
2021/04/22 04:02:35;;;;;;;26.27;20.40;;;8.90;99.90;;;;;;5012472;28;20473;-68
2021/04/22 04:05:01;;;;;;;24.27;21.13;;;8.80;99.90;;;;;;5012840;28;20612;-68
2021/04/22 04:07:27;;;;;;;29.47;21.93;;;8.70;99.90;;;;;;5012522;28;20484;-68
2021/04/22 04:09:54;;;;;;;28.57;20.73;;;8.60;99.90;;;;;;5012565;28;21112;-68
2021/04/22 04:12:20;;;;;;;27.10;22.87;;;8.60;99.90;;;;;;5012479;28;20541;-68
2021/04/22 04:14:47;;;;;;;24.87;21.03;;;8.60;99.90;;;;;;5012364;28;20541;-68
2021/04/22 04:17:14;;;;;;;24.70;20.70;;;8.50;99.90;;;;;;5012429;28;20535;-67
2021/04/22 04:19:40;;;;;;;25.00;20.53;;;8.50;99.90;;;;;;5012482;28;20997;-67
2021/04/22 04:22:06;;;;;;;23.73;21.17;;;8.40;99.90;;;;;;5012228;28;21031;-68
2021/04/22 04:24:33;;;;;;;26.63;22.20;;;8.40;99.90;;;;;;5011788;28;20458;-67
2021/04/22 04:26:59;;;;;;;25.40;21.20;;;8.40;99.90;;;;;;5012592;28;20485;-68
2021/04/22 04:29:25;;;;;;;25.20;21.10;;;8.30;99.90;;;;;;5012212;28;20453;-68
2021/04/22 04:31:53;;;;;;;26.67;22.70;;;8.30;99.90;;;;;;5012201;28;20453;-68
2021/04/22 04:34:19;;;;;;;26.63;23.83;;;8.30;99.90;;;;;;5010746;28;20473;-68
2021/04/22 04:36:46;;;;;;;23.70;21.20;;;8.30;99.90;;;;;;5012011;28;20225;-67
2021/04/22 04:39:14;;;;;;;30.73;20.97;;;8.20;99.90;;;;;;5012110;28;20492;-68
2021/04/22 04:41:41;;;;;;;24.80;22.10;;;8.10;99.90;;;;;;5012277;28;20445;-67
2021/04/22 04:44:07;;;;;;;25.20;20.30;;;8.10;99.90;;;;;;5011595;28;21065;-67
2021/04/22 04:46:34;;;;;;;26.00;22.90;;;8.10;99.90;;;;;;5011027;28;20803;-68
2021/04/22 04:49:01;;;;;;;26.27;21.77;;;8.10;99.90;;;;;;5002060;28;20483;-67
2021/04/22 04:51:27;;;;;;;28.40;22.87;;;8.10;99.90;;;;;;5000709;28;20581;-67
2021/04/22 04:53:54;;;;;;;27.43;21.10;;;8.20;99.90;;;;;;5002422;28;20552;-67
2021/04/22 04:56:21;;;;;;;26.77;22.33;;;8.20;99.90;;;;;;5002737;28;20452;-67
2021/04/22 04:58:48;;;;;;;27.43;22.43;;;8.20;99.90;;;;;;5000226;28;20470;-69
2021/04/22 05:01:15;;;;;;;27.00;23.30;;;8.20;99.90;;;;;;4997186;28;20545;-67
2021/04/22 05:03:41;;;;;;;26.17;22.30;;;8.10;99.90;;;;;;4991806;28;20557;-67
2021/04/22 05:06:08;;;;;;;28.00;22.63;;;8.00;99.90;;;;;;4992257;28;20451;-68
2021/04/22 05:08:35;;;;;;;32.30;25.07;;;8.00;99.90;;;;;;4992497;28;20482;-68
2021/04/22 05:11:01;;;;;;;27.60;22.27;;;8.10;99.90;;;;;;5002537;28;20458;-68
2021/04/22 05:13:28;;;;;;;26.33;23.30;;;8.10;99.90;;;;;;5018624;28;20560;-68
2021/04/22 05:15:56;;;;;;;29.73;23.10;;;8.20;99.90;;;;;;5011998;28;20457;-68
2021/04/22 05:18:22;;;;;;;27.27;23.07;;;8.20;99.90;;;;;;5010929;28;20441;-68
2021/04/22 05:20:49;;;;;;;28.17;23.10;;;8.30;99.90;;;;;;5009531;28;20429;-69
2021/04/22 05:23:16;;;;;;;28.50;23.67;;;8.30;99.90;;;;;;5001182;28;21010;-67
2021/04/22 05:25:42;;;;;;;25.17;22.07;;;8.40;99.90;;;;;;4990339;28;20513;-67
2021/04/22 05:28:09;;;;;;;26.53;22.37;;;8.40;99.90;;;;;;4989865;28;20478;-68
2021/04/22 05:30:35;;;;;;;31.17;22.97;;;8.40;99.90;;;;;;4990377;28;20453;-69
2021/04/22 05:33:02;;;;;;;25.30;22.50;;;8.50;99.90;;;;;;4990076;28;20581;-68
2021/04/22 05:35:28;;;;;;;29.10;24.07;;;8.50;99.90;;;;;;4990160;28;21998;-67
2021/04/22 05:37:55;;;;;;;28.77;21.97;;;8.60;99.90;;;;;;5009020;28;20477;-66
2021/04/22 05:40:22;;;;;;;27.50;23.07;;;8.70;99.90;;;;;;5015983;28;21126;-72
2021/04/22 05:42:49;;;;;;;28.63;24.00;;;8.80;99.90;;;;;;5014414;28;20552;-70
2021/04/22 05:45:17;;;;;;;24.70;21.20;;;8.90;99.90;;;;;;5016579;28;20525;-69
2021/04/22 05:47:44;;;;;;;25.33;21.33;;;9.00;99.90;;;;;;5016923;28;20483;-66
2021/04/22 05:50:12;;;;;;;24.07;21.57;;;9.10;99.90;;;;;;5024095;28;20444;-69
2021/04/22 05:52:38;;;;;;;24.37;19.67;;;9.20;99.90;;;;;;5027667;28;21390;-72
2021/04/22 05:55:07;;;;;;;26.30;19.30;;;9.30;99.90;;;;;;5028243;28;20534;-68
2021/04/22 05:57:35;;;;;;;21.33;18.90;;;9.40;99.90;;;;;;5028188;28;20451;-69
2021/04/22 06:00:01;;;;;;;23.03;20.43;;;9.40;99.90;;;;;;5027756;28;20485;-69
2021/04/22 06:02:28;;;;;;;23.17;20.00;;;9.40;99.90;;;;;;5027794;28;20556;-67
2021/04/22 06:04:57;;;;;;;24.23;19.50;;;9.40;99.90;;;;;;5027782;28;20441;-69
2021/04/22 06:07:24;;;;;;;22.87;20.17;;;9.40;99.90;;;;;;5027640;28;20532;-67
2021/04/22 06:09:50;;;;;;;24.07;19.97;;;9.30;99.90;;;;;;5027841;28;20460;-66
2021/04/22 06:12:16;;;;;;;23.80;20.30;;;9.30;99.90;;;;;;5027852;28;20551;-68
2021/04/22 06:14:44;;;;;;;23.57;20.97;;;9.30;99.90;;;;;;5027430;28;20874;-66
2021/04/22 06:17:10;;;;;;;29.67;21.00;;;9.30;99.90;;;;;;5027408;28;20975;-65
2021/04/22 06:19:37;;;;;;;24.40;19.90;;;9.40;99.90;;;;;;5027363;28;21258;-71
2021/04/22 06:22:03;;;;;;;28.07;19.70;;;9.40;99.90;;;;;;5005557;28;20482;-68
2021/04/22 06:24:30;;;;;;;27.57;21.07;;;9.50;99.90;;;;;;5005264;28;20544;-66
2021/04/22 06:26:56;;;;;;;24.90;20.13;;;9.60;99.90;;;;;;5007107;28;20878;-68
2021/04/22 06:29:23;;;;;;;26.27;19.90;;;9.70;99.90;;;;;;5006654;28;20496;-66
2021/04/22 06:31:50;;;;;;;23.17;20.07;;;9.70;99.90;;;;;;5007264;28;20490;-66
2021/04/22 06:34:17;;;;;;;23.10;20.53;;;9.80;99.90;;;;;;5005403;28;20477;-65
2021/04/22 06:36:44;;;;;;;26.40;20.50;;;9.80;99.90;;;;;;5007102;28;20446;-70
2021/04/22 06:39:11;;;;;;;22.13;18.87;;;9.90;99.90;;;;;;5008539;28;20533;-68
2021/04/22 06:41:38;;;;;;;22.77;19.13;;;9.90;99.90;;;;;;5010892;28;20870;-69
2021/04/22 06:44:04;;;;;;;22.23;18.23;;;9.90;99.90;;;;;;5009839;28;20544;-68
2021/04/22 06:46:31;;;;;;;22.30;19.03;;;10.00;99.90;;;;;;5010880;28;20484;-66
2021/04/22 06:48:58;;;;;;;21.13;18.77;;;10.00;99.90;;;;;;5010569;28;20481;-68
2021/04/22 06:51:25;;;;;;;29.50;19.30;;;10.00;99.90;;;;;;5010660;28;20453;-70
2021/04/22 06:53:51;;;;;;;23.30;17.60;;;10.00;99.90;;;;;;5010008;28;20919;-67
2021/04/22 06:56:17;;;;;;;25.50;19.93;;;10.10;99.90;;;;;;5011081;28;20487;-66
2021/04/22 06:58:44;;;;;;;21.43;17.60;;;10.20;99.90;;;;;;5010477;28;20549;-70
2021/04/22 07:01:10;;;;;;;23.80;17.67;;;10.30;99.90;;;;;;5010678;28;20877;-68
2021/04/22 07:03:37;;;;;;;20.90;17.13;;;10.30;99.90;;;;;;5009940;28;20474;-71
2021/04/22 07:06:05;;;;;;;23.20;16.50;;;10.30;99.90;;;;;;5010262;28;20456;-64
2021/04/22 07:08:31;;;;;;;25.70;17.30;;;10.40;99.90;;;;;;5010715;28;21077;-66
2021/04/22 07:10:58;;;;;;;25.40;16.87;;;10.60;99.90;;;;;;5009964;28;20485;-69
2021/04/22 07:13:24;;;;;;;18.67;16.30;;;10.70;99.90;;;;;;5009964;28;20477;-67
2021/04/22 07:15:51;;;;;;;23.00;15.27;;;10.80;99.90;;;;;;5005868;28;20466;-66
2021/04/22 07:18:17;;;;;;;20.23;16.17;;;10.80;99.90;;;;;;4990524;28;20509;-69
2021/04/22 07:20:44;;;;;;;22.73;16.53;;;10.90;99.90;;;;;;4990499;28;21149;-68
2021/04/22 07:23:13;;;;;;;18.23;13.67;;;10.90;99.90;;;;;;4989777;28;20509;-67
2021/04/22 07:25:40;;;;;;;19.77;14.23;;;10.90;99.90;;;;;;4990016;28;21128;-66
2021/04/22 07:28:09;;;;;;;23.83;14.53;;;10.60;99.90;;;;;;4990833;28;20478;-65
2021/04/22 07:30:36;;;;;;;20.00;15.60;;;10.70;99.90;;;;;;4990163;28;20458;-68
2021/04/22 07:33:03;;;;;;;17.83;15.77;;;10.70;99.90;;;;;;4989969;28;20467;-67
2021/04/22 07:35:29;;;;;;;20.70;15.57;;;10.70;99.90;;;;;;4990630;28;20537;-70
2021/04/22 07:37:56;;;;;;;19.47;14.93;;;10.80;99.90;;;;;;4990612;28;20485;-67
2021/04/22 07:40:25;;;;;;;18.80;16.00;;;10.90;99.90;;;;;;4990733;28;20477;-69
2021/04/22 07:42:52;;;;;;;19.27;14.10;;;11.00;99.90;;;;;;4989800;28;20557;-68
2021/04/22 07:45:21;;;;;;;20.67;14.70;;;11.00;99.90;;;;;;4990441;28;20489;-70
2021/04/22 07:47:47;;;;;;;17.30;14.57;;;11.00;99.90;;;;;;4989945;28;20577;-68
2021/04/22 07:50:15;;;;;;;17.97;13.93;;;11.00;99.90;;;;;;4989262;28;20447;-70
2021/04/22 07:52:44;;;;;;;16.47;13.57;;;11.00;99.90;;;;;;4989434;28;20506;-72
2021/04/22 07:55:13;;;;;;;15.73;13.63;;;10.90;99.90;;;;;;4990346;28;20458;-70
2021/04/22 07:57:40;;;;;;;29.30;12.80;;;10.90;99.90;;;;;;4990238;28;20482;-68
2021/04/22 08:00:08;;;;;;;20.87;13.80;;;10.80;99.90;;;;;;4989841;28;20966;-69
2021/04/22 08:02:35;;;;;;;18.37;14.00;;;10.70;99.90;;;;;;4989728;28;20558;-70
2021/04/22 08:05:03;;;;;;;15.70;12.13;;;10.70;99.90;;;;;;4989913;28;21259;-68
2021/04/22 08:07:29;;;;;;;20.57;14.60;;;10.90;99.90;;;;;;4989641;28;20458;-68
2021/04/22 08:09:56;;;;;;;23.03;14.90;;;11.10;99.90;;;;;;4989893;28;20541;-68
2021/04/22 08:12:22;;;;;;;22.23;13.60;;;11.20;99.90;;;;;;4989457;28;20874;-72
2021/04/22 08:14:50;;;;;;;16.83;13.53;;;11.20;99.90;;;;;;4989879;28;20546;-69
2021/04/22 08:17:16;;;;;;;19.37;14.20;;;11.50;99.90;;;;;;4990210;28;21028;-69
2021/04/22 08:19:42;;;;;;;16.50;13.27;;;11.50;99.90;;;;;;4989422;28;20601;-69
2021/04/22 08:22:09;;;;;;;23.67;16.07;;;11.60;99.90;;;;;;4990196;28;20518;-71
2021/04/22 08:24:35;;;;;;;19.90;13.87;;;11.60;99.90;;;;;;4989819;28;20538;-71
2021/04/22 08:27:02;;;;;;;17.10;12.70;;;11.20;99.90;;;;;;4998316;28;20552;-69
2021/04/22 08:29:28;;;;;;;17.13;13.80;;;11.30;99.90;;;;;;5024929;28;20566;-70
2021/04/22 08:31:55;;;;;;;13.80;12.17;;;11.40;99.90;;;;;;5020735;28;20444;-67
2021/04/22 08:34:25;;;;;;;20.57;12.17;;;11.50;99.90;;;;;;5028715;28;20465;-71
2021/04/22 08:36:51;;;;;;;16.97;12.10;;;11.40;99.90;;;;;;5017323;28;20825;-71
2021/04/22 08:39:17;;;;;;;19.70;13.00;;;11.60;99.90;;;;;;5015985;28;20465;-69
2021/04/22 08:41:45;;;;;;;15.13;11.83;;;11.60;99.90;;;;;;5009749;28;20484;-72
2021/04/22 08:44:11;;;;;;;14.57;11.70;;;11.60;99.90;;;;;;5009423;28;20537;-66
2021/04/22 08:46:39;;;;;;;16.70;12.10;;;11.70;99.90;;;;;;5009632;28;20452;-68
2021/04/22 08:49:07;;;;;;;21.23;12.30;;;11.70;99.90;;;;;;5008337;28;20568;-68
2021/04/22 08:51:34;;;;;;;18.70;12.80;;;11.70;99.90;;;;;;5009124;28;20606;-68
2021/04/22 08:54:03;;;;;;;16.87;11.53;;;12.00;99.90;;;;;;5007902;28;20569;-68
2021/04/22 08:56:33;;;;;;;14.73;11.33;;;12.10;99.90;;;;;;5008883;28;20862;-68
2021/04/22 08:58:59;;;;;;;14.53;10.70;;;12.30;99.90;;;;;;5008744;28;20809;-67
2021/04/22 09:01:26;;;;;;;19.90;10.63;;;12.20;99.90;;;;;;5007534;28;20446;-67
2021/04/22 09:03:53;;;;;;;13.20;10.03;;;12.10;99.90;;;;;;5007673;28;20470;-67
2021/04/22 09:06:21;;;;;;;13.50;12.00;;;12.10;99.90;;;;;;5008630;28;20882;-67
2021/04/22 09:08:50;;;;;;;16.60;10.60;;;12.40;99.90;;;;;;5008614;28;20883;-67
2021/04/22 09:11:20;;;;;;;18.70;10.13;;;12.30;99.90;;;;;;5008167;28;20454;-67
2021/04/22 09:13:47;;;;;;;16.53;9.70;;;12.50;99.90;;;;;;5007708;28;20564;-67
2021/04/22 09:16:15;;;;;;;13.20;10.10;;;12.60;99.90;;;;;;5008201;28;20434;-67
2021/04/22 09:18:44;;;;;;;11.77;10.07;;;12.80;99.90;;;;;;5008386;28;20675;-68
2021/04/22 09:21:20;;;;;;;15.03;10.40;;;13.10;99.90;;;;;;5007996;28;20453;-70
2021/04/22 09:23:59;;;;;;;15.83;9.57;;;13.20;99.90;;;;;;5007368;28;20484;-71
2021/04/22 09:26:36;;;;;;;13.40;10.67;;;13.20;99.90;;;;;;5008268;28;20546;-70
2021/04/22 09:29:03;;;;;;;11.13;8.60;;;13.10;99.90;;;;;;5008989;28;20856;-68
2021/04/22 09:31:29;;;;;;;13.23;10.00;;;13.00;99.90;;;;;;5007721;28;20460;-70
2021/04/22 09:34:05;;;;;;;11.10;8.60;;;13.20;99.90;;;;;;5007050;28;20470;-67
2021/04/22 09:36:48;;;;;;;13.60;9.10;;;13.40;99.90;;;;;;5007726;28;20453;-71
2021/04/22 09:39:17;;;;;;;12.07;9.40;;;13.80;99.90;;;;;;5007623;28;20948;-70
2021/04/22 09:41:44;;;;;;;13.40;9.37;;;13.90;98.40;;;;;;5007804;28;20481;-70
2021/04/22 09:44:14;;;;;;;15.30;9.40;;;14.20;98.80;;;;;;5007237;28;20855;-69
2021/04/22 09:46:44;;;;;;;12.33;8.70;;;14.20;97.80;;;;;;5008051;28;20478;-70
2021/04/22 09:49:14;;;;;;;15.97;8.90;;;14.10;97.70;;;;;;5007371;28;20481;-68
2021/04/22 09:51:41;;;;;;;13.07;8.10;;;14.00;97.10;;;;;;5007595;28;20446;-69
2021/04/22 09:54:11;;;;;;;10.90;8.33;;;13.90;96.80;;;;;;5007118;28;20476;-71
2021/04/22 09:56:46;;;;;;;9.40;7.47;;;14.00;95.80;;;;;;5007806;28;20515;-68
2021/04/22 09:59:17;;;;;;;12.37;8.63;;;13.80;94.70;;;;;;5006995;28;20448;-68
2021/04/22 10:01:45;;;;;;;9.53;7.27;;;13.80;95.30;;;;;;5013320;28;20507;-69
2021/04/22 10:04:13;;;;;;;8.43;6.63;;;14.50;94.10;;;;;;5014607;28;21037;-70
2021/04/22 10:06:41;;;;;;;12.40;7.13;;;14.60;91.80;;;;;;5014710;28;20457;-70
2021/04/22 10:09:09;;;;;;;10.23;6.93;;;14.50;91.60;;;;;;5012069;28;20969;-66
2021/04/22 10:11:49;;;;;;;8.00;6.63;;;14.50;91.60;;;;;;5015702;28;20470;-67
2021/04/22 10:14:16;;;;;;;8.33;7.27;;;14.70;92.10;;;;;;5023058;28;20911;-68
2021/04/22 10:16:43;;;;;;;9.87;7.10;;;15.10;90.30;;;;;;5028919;28;20442;-68
2021/04/22 10:19:18;;;;;;;11.90;6.37;;;14.90;89.10;;;;;;5027590;28;20442;-69
2021/04/22 10:21:45;;;;;;;11.40;6.90;;;14.60;90.00;;;;;;5024867;28;20878;-69
2021/04/22 10:24:14;;;;;;;8.13;6.10;;;14.60;91.30;;;;;;5011861;28;20813;-70
2021/04/22 10:26:41;;;;;;;9.57;6.27;;;15.00;89.60;;;;;;5009783;28;20456;-68
2021/04/22 10:29:09;;;;;;;10.27;5.80;;;15.00;90.00;;;;;;5012403;28;20659;-68
2021/04/22 10:31:35;;;;;;;7.17;5.23;;;15.10;88.90;;;;;;5006815;28;20540;-68
2021/04/22 10:34:03;;;;;;;10.47;5.20;;;15.30;86.60;;;;;;5006465;28;20466;-67
2021/04/22 10:36:31;;;;;;;12.90;5.37;;;15.10;80.20;;;;;;5007424;28;20442;-67
2021/04/22 10:38:59;;;;;;;11.83;5.23;;;14.90;79.30;;;;;;5006990;28;20453;-68
2021/04/22 10:41:32;;;;;;;10.90;6.90;;;14.90;79.40;;;;;;5006878;28;20940;-68
2021/04/22 10:44:00;;;;;;;6.93;4.70;;;14.90;78.00;;;;;;5006884;28;20462;-67
2021/04/22 10:46:27;;;;;;;8.90;4.43;;;15.00;74.90;;;;;;5007650;28;20536;-67
2021/04/22 10:48:53;;;;;;;6.87;4.50;;;15.10;71.70;;;;;;5007459;28;20539;-67
2021/04/22 10:51:20;;;;;;;6.40;3.67;;;15.20;68.80;;;;;;5007453;28;20532;-69
2021/04/22 10:53:47;;;;;;;5.57;4.20;;;15.20;67.50;;;;;;5006732;28;20658;-70
2021/04/22 10:56:24;;;;;;;5.77;3.90;;;15.50;66.20;;;;;;5009020;28;20451;-67
2021/04/22 10:58:51;;;;;;;5.80;4.10;;;15.70;64.10;;;;;;5007782;28;20473;-69
2021/04/22 11:01:18;;;;;;;6.83;4.40;;;15.90;61.90;;;;;;5007813;28;20493;-69
2021/04/22 11:03:46;;;;;;;6.77;4.27;;;16.00;63.70;;;;;;5008003;28;20521;-67
2021/04/22 11:06:15;;;;;;;5.23;4.13;;;16.20;62.20;;;;;;5007386;28;20454;-69
2021/04/22 11:08:43;;;;;;;7.93;4.50;;;16.10;60.40;;;;;;5007830;28;20544;-69
2021/04/22 11:11:20;;;;;;;6.30;4.30;;;16.30;64.10;;;;;;5008273;28;20533;-70
2021/04/22 11:13:48;;;;;;;8.00;4.63;;;16.30;64.90;;;;;;5007578;28;20551;-69
2021/04/22 11:16:16;;;;;;;5.87;3.87;;;16.00;65.40;;;;;;5008238;28;20541;-68
2021/04/22 11:18:44;;;;;;;7.97;4.00;;;16.10;61.50;;;;;;5008693;28;20485;-68
2021/04/22 11:21:25;;;;;;;6.47;3.50;;;16.10;57.10;;;;;;5008353;28;20529;-70
2021/04/22 11:23:52;;;;;;;6.07;2.90;;;16.30;52.90;;;;;;5016091;28;20987;-69
2021/04/22 11:26:25;;;;;;;4.60;2.90;;;16.60;54.70;;;;;;5015350;28;20944;-67
2021/04/22 11:28:52;;;;;;;4.60;2.97;;;16.90;51.70;;;;;;5022026;28;20484;-70
2021/04/22 11:31:21;;;;;;;5.23;2.87;;;17.00;49.50;;;;;;5030315;28;20444;-71
2021/04/22 11:33:48;;;;;;;7.73;3.30;;;17.50;51.50;;;;;;5030903;28;20485;-69
2021/04/22 11:36:20;;;;;;;7.83;2.97;;;17.50;49.40;;;;;;5020729;28;20503;-68
2021/04/22 11:38:54;;;;;;;6.07;3.53;;;17.50;50.30;;;;;;5025402;28;20470;-69
2021/04/22 11:41:22;;;;;;;5.27;3.60;;;17.60;51.30;;;;;;5033462;28;20453;-69
2021/04/22 11:44:00;;;;;;;4.53;3.20;;;17.60;50.00;;;;;;5042230;28;20491;-70
2021/04/22 11:46:45;;;;;;;6.83;4.33;;;17.80;49.50;;;;;;5039560;28;20444;-69
2021/04/22 11:49:25;;;;;;;7.17;3.60;;;18.10;49.70;;;;;;5025537;28;20577;-67
2021/04/22 11:51:52;;;;;;;5.60;3.87;;;18.40;52.10;;;;;;5012867;28;20544;-66
2021/04/22 11:54:22;;;;;;;8.37;4.13;;;18.60;50.70;;;;;;5013294;28;20998;-71
2021/04/22 11:56:58;;;;;;;6.80;4.30;;;18.80;50.60;;;;;;5012015;28;20442;-70
2021/04/22 11:59:26;;;;;;;5.97;3.30;;;19.20;51.30;;;;;;5006675;28;20449;-69
2021/04/22 12:01:56;;;;;;;6.57;3.43;;;19.00;48.30;;;;;;4999179;28;20946;-68
2021/04/22 12:04:23;;;;;;;6.03;3.60;;;18.80;47.80;;;;;;4997561;28;20565;-67
2021/04/22 12:06:51;;;;;;;8.27;3.57;;;18.60;48.00;;;;;;5003967;28;20504;-67
2021/04/22 12:09:28;;;;;;;6.20;3.37;;;18.60;48.10;;;;;;5001030;28;20604;-67
2021/04/22 12:12:04;;;;;;;7.20;3.53;;;19.00;46.90;;;;;;5001873;28;20533;-67
2021/04/22 12:14:31;;;;;;;3.80;3.23;;;19.00;46.00;;;;;;5004749;28;20496;-67
2021/04/22 12:16:58;;;;;;;5.87;3.80;;;19.50;47.40;;;;;;5001629;28;20937;-67
2021/04/22 12:19:26;;;;;;;4.67;3.23;;;19.90;48.20;;;;;;5004280;28;20443;-67
2021/04/22 12:21:54;;;;;;;5.90;3.27;;;20.20;48.50;;;;;;5001617;28;20829;-66
2021/04/22 12:24:23;;;;;;;7.90;3.87;;;20.30;46.90;;;;;;5001832;28;21067;-66
2021/04/22 12:26:50;;;;;;;6.97;3.50;;;20.40;46.90;;;;;;5005991;28;20454;-66
2021/04/22 12:29:18;;;;;;;8.00;3.77;;;20.10;46.60;;;;;;5003883;28;22433;-66
2021/04/22 12:31:47;;;;;;;5.97;3.80;;;19.30;47.30;;;;;;5001339;28;20447;-65
2021/04/22 12:34:16;;;;;;;6.03;4.30;;;19.60;50.90;;;;;;5002941;28;20546;-67
2021/04/22 12:36:58;;;;;;;9.57;3.67;;;19.50;47.20;;;;;;5002766;28;20454;-67
2021/04/22 12:39:31;;;;;;;6.50;3.20;;;19.00;48.20;;;;;;5006783;28;20442;-67